Palito Blanco, Texas
Current Conditions -  °F | °C
As of 12:53 PM on Friday 24 Oct 2014 (Local Time) from KALI Reporting Station
Clear Clear  
Wind Chill: 84°   Ceiling: Unl
Heat Index: 84°   Visibility: 10mi
Dew Point: 61°   Wind: 9mph
Humidity: 46%   Direction: 80°E
Pressure: 30.14"   Gusts: NA
Location:  27.6821°N, 98.1034°W
Report Text: KALI 241753Z AUTO 08008KT 10SM CLR 29/16 A3014 RMK AO2 SLP203 T02890161 10289 20167 58007
Loading
Personal Weather Stations






























Interactive Weather Map
Tropical Storm Tracking
New forecast layout! Learn more

10-Day Weather Forecast

Advertisements
Track Severe Weather on mobile